createdAt,value
2018-04-08T00:00:05.085Z,80.05
2018-04-08T00:01:04.969Z,79.77
2018-04-08T00:02:05.121Z,79.77
2018-04-08T00:03:05.317Z,79.86
2018-04-08T00:04:04.121Z,80.24
2018-04-08T00:05:04.813Z,80.24
2018-04-08T00:06:28.030Z,80.43
2018-04-08T00:07:28.895Z,80.81
2018-04-08T00:08:29.153Z,81.29
2018-04-08T00:09:29.260Z,80.81
2018-04-08T00:10:28.862Z,80.91
2018-04-08T00:11:28.795Z,80.53
2018-04-08T00:12:28.649Z,80.33
2018-04-08T00:13:49.708Z,79.67
2018-04-08T00:14:50.861Z,79.96
2018-04-08T00:15:50.539Z,79.86
2018-04-08T00:16:50.339Z,80.15
2018-04-08T00:17:50.797Z,80.33
2018-04-08T00:18:51.450Z,80.72
2018-04-08T00:19:50.555Z,80.62
2018-04-08T00:20:50.303Z,80.53
2018-04-08T00:21:50.144Z,80.72
2018-04-08T00:22:50.300Z,81.10
2018-04-08T00:23:50.341Z,81.15
2018-04-08T00:24:49.934Z,81.25
2018-04-08T00:25:50.862Z,81.35
2018-04-08T00:27:11.906Z,81.92
2018-04-08T00:28:12.817Z,82.30
2018-04-08T00:29:54.670Z,82.30
2018-04-08T00:30:55.368Z,82.49
2018-04-08T00:31:55.634Z,82.78
2018-04-08T00:32:55.133Z,83.06
2018-04-08T00:33:54.787Z,83.25
2018-04-08T00:34:55.491Z,83.25
2018-04-08T00:35:55.148Z,83.25
2018-04-08T00:36:54.731Z,83.16
2018-04-08T00:37:55.740Z,83.25
2018-04-08T00:38:55.263Z,82.68
2018-04-08T00:39:55.370Z,82.87
2018-04-08T00:40:55.281Z,82.97
2018-04-08T00:41:55.313Z,82.87
2018-04-08T00:42:54.943Z,82.78
2018-04-08T00:43:55.511Z,82.78
2018-04-08T00:44:55.514Z,83.16
2018-04-08T00:45:55.426Z,82.68
2018-04-08T00:46:54.875Z,82.78
2018-04-08T00:48:16.762Z,82.30
2018-04-08T00:49:39.326Z,82.49
2018-04-08T00:50:39.074Z,82.59
2018-04-08T00:51:39.659Z,82.59
2018-04-08T00:52:39.288Z,83.16
2018-04-08T00:53:39.028Z,83.25
2018-04-08T00:54:39.766Z,83.54
2018-04-08T00:55:39.888Z,83.54
2018-04-08T00:56:39.643Z,83.69
2018-04-08T00:58:01.030Z,84.07
2018-04-08T00:59:01.074Z,84.07
2018-04-08T01:00:21.799Z,84.45
2018-04-08T01:01:22.469Z,84.45
2018-04-08T01:02:22.513Z,84.55
2018-04-08T01:03:22.092Z,84.55
2018-04-08T01:04:22.127Z,84.45
2018-04-08T01:05:44.108Z,84.45
2018-04-08T01:06:45.514Z,84.45
2018-04-08T01:07:45.167Z,84.36
2018-04-08T01:09:04.768Z,84.45
2018-04-08T01:10:27.280Z,84.36
2018-04-08T01:11:27.261Z,84.45
2018-04-08T01:12:27.006Z,84.45
2018-04-08T01:13:48.517Z,84.26
2018-04-08T01:14:49.258Z,84.36
2018-04-08T01:15:49.044Z,84.26
2018-04-08T01:16:49.630Z,84.16
2018-04-08T01:17:49.306Z,83.88
2018-04-08T01:18:49.330Z,83.88
2018-04-08T01:19:49.159Z,83.88
2018-04-08T01:20:49.109Z,84.07
2018-04-08T01:21:49.280Z,83.88
2018-04-08T01:22:48.874Z,83.88
2018-04-08T01:23:49.892Z,83.69
2018-04-08T01:24:49.365Z,83.78
2018-04-08T01:25:49.236Z,84.36
2018-04-08T01:26:49.222Z,84.36
2018-04-08T01:27:49.120Z,84.16
2018-04-08T01:28:48.765Z,84.36
2018-04-08T01:30:11.227Z,84.16
2018-04-08T01:32:13.505Z,84.07
2018-04-08T01:33:14.496Z,83.97
2018-04-08T01:34:16.030Z,83.97
2018-04-08T01:35:14.535Z,83.50
2018-04-08T01:36:55.899Z,83.40
2018-04-08T01:38:17.661Z,83.21
2018-04-08T01:39:18.301Z,83.12
2018-04-08T01:40:17.878Z,83.02
2018-04-08T01:41:18.090Z,82.73
2018-04-08T01:42:38.902Z,82.54
2018-04-08T01:43:38.767Z,82.54
2018-04-08T01:44:39.672Z,82.45
2018-04-08T01:45:39.719Z,82.45
2018-04-08T01:47:00.927Z,82.54
2018-04-08T01:48:02.166Z,82.45
2018-04-08T01:49:02.162Z,82.64
2018-04-08T01:50:01.708Z,82.54
2018-04-08T01:51:01.416Z,82.54
2018-04-08T01:52:00.955Z,82.64
2018-04-08T01:53:22.900Z,82.54
2018-04-08T01:54:23.137Z,82.54
2018-04-08T01:55:23.268Z,82.64
2018-04-08T01:56:23.368Z,82.73
2018-04-08T01:57:23.193Z,82.54
2018-04-08T01:58:22.697Z,82.54
2018-04-08T01:59:23.485Z,82.64
2018-04-08T02:00:23.052Z,82.73
2018-04-08T02:01:23.132Z,82.83
2018-04-08T02:02:23.073Z,83.02
2018-04-08T02:03:22.683Z,82.73
2018-04-08T02:04:23.397Z,82.64
2018-04-08T02:05:23.378Z,82.54
2018-04-08T02:06:23.095Z,82.26
2018-04-08T02:07:22.713Z,82.17
2018-04-08T02:08:23.549Z,82.07
2018-04-08T02:09:23.285Z,81.88
2018-04-08T02:10:22.901Z,81.88
2018-04-08T02:11:22.562Z,81.88
2018-04-08T02:12:44.769Z,81.97
2018-04-08T02:13:45.525Z,82.07
2018-04-08T02:14:45.146Z,82.17
2018-04-08T02:16:05.753Z,82.45
2018-04-08T02:17:06.699Z,82.54
2018-04-08T02:18:27.775Z,82.73
2018-04-08T02:19:29.125Z,82.73
2018-04-08T02:20:29.121Z,82.83
2018-04-08T02:21:28.073Z,82.73
2018-04-08T02:22:28.891Z,82.45
2018-04-08T02:23:28.979Z,82.26
2018-04-08T02:24:28.725Z,82.26
2018-04-08T02:25:28.354Z,82.17
2018-04-08T02:26:28.107Z,82.17
2018-04-08T02:27:28.800Z,82.17
2018-04-08T02:28:49.496Z,82.17
2018-04-08T02:29:50.232Z,81.97
2018-04-08T02:30:50.231Z,81.88
2018-04-08T02:31:50.131Z,82.07
2018-04-08T02:32:50.154Z,82.17
2018-04-08T02:33:49.568Z,82.26
2018-04-08T02:34:50.221Z,82.26
2018-04-08T02:35:49.543Z,82.26
2018-04-08T02:36:54.306Z,82.35
2018-04-08T02:37:54.280Z,82.45
2018-04-08T02:39:10.613Z,82.45
2018-04-08T02:40:11.077Z,82.45
2018-04-08T02:41:11.601Z,82.35
2018-04-08T02:42:11.248Z,82.45
2018-04-08T02:43:10.622Z,82.54
2018-04-08T02:44:10.937Z,82.64
2018-04-08T02:45:11.722Z,82.79
2018-04-08T02:46:31.222Z,83.07
2018-04-08T02:47:31.510Z,83.26
2018-04-08T02:48:32.101Z,83.36
2018-04-08T02:49:32.013Z,83.45
2018-04-08T02:50:31.411Z,83.45
2018-04-08T02:51:32.118Z,83.45
2018-04-08T02:52:31.675Z,83.45
2018-04-08T02:53:32.318Z,83.45
2018-04-08T02:54:32.253Z,83.36
2018-04-08T02:55:54.228Z,83.36
2018-04-08T02:56:54.765Z,83.26
2018-04-08T02:57:54.270Z,83.26
2018-04-08T02:58:54.866Z,83.26
2018-04-08T03:00:15.545Z,83.26
2018-04-08T03:01:16.048Z,83.26
2018-04-08T03:02:15.944Z,83.36
2018-04-08T03:03:15.413Z,83.36
2018-04-08T03:04:16.126Z,83.07
2018-04-08T03:05:16.026Z,82.98
2018-04-08T03:06:15.666Z,82.89
2018-04-08T03:07:16.321Z,82.60
2018-04-08T03:08:15.684Z,82.41
2018-04-08T03:09:37.634Z,82.26
2018-04-08T03:10:37.990Z,81.88
2018-04-08T03:11:38.458Z,81.59
2018-04-08T03:12:38.250Z,81.40
2018-04-08T03:13:38.609Z,81.12
2018-04-08T03:14:38.208Z,81.02
2018-04-08T03:15:38.828Z,80.83
2018-04-08T03:16:38.276Z,80.73
2018-04-08T03:17:37.772Z,80.83
2018-04-08T03:18:38.524Z,80.83
2018-04-08T03:19:38.097Z,81.02
2018-04-08T03:20:38.015Z,80.92
2018-04-08T03:21:38.325Z,80.83
2018-04-08T03:22:38.049Z,80.73
2018-04-08T03:23:38.415Z,80.64
2018-04-08T03:24:37.779Z,80.73
2018-04-08T03:25:38.150Z,81.02
2018-04-08T03:26:38.907Z,81.21
2018-04-08T03:27:38.602Z,81.21
2018-04-08T03:28:38.194Z,81.49
2018-04-08T03:29:38.860Z,81.68
2018-04-08T03:30:38.376Z,81.88
2018-04-08T03:31:37.838Z,81.97
2018-04-08T03:32:38.191Z,82.17
2018-04-08T03:33:38.072Z,82.17
2018-04-08T03:34:38.900Z,82.07
2018-04-08T03:35:59.808Z,82.07
2018-04-08T03:37:00.206Z,81.88
2018-04-08T03:38:00.007Z,81.68
2018-04-08T03:39:00.567Z,81.68
2018-04-08T03:40:00.390Z,81.78
2018-04-08T03:41:00.189Z,81.88
2018-04-08T03:41:59.899Z,81.97
2018-04-08T03:43:21.677Z,82.21
2018-04-08T03:44:22.509Z,82.12
2018-04-08T03:45:22.397Z,82.21
2018-04-08T03:46:21.731Z,82.21
2018-04-08T03:47:22.028Z,82.41
2018-04-08T03:48:22.422Z,82.31
2018-04-08T03:49:22.106Z,82.50
2018-04-08T03:50:22.681Z,82.60
2018-04-08T03:51:22.437Z,82.69
2018-04-08T03:52:42.990Z,82.89
2018-04-08T03:53:43.428Z,82.98
2018-04-08T03:54:42.760Z,83.17
2018-04-08T03:56:04.729Z,83.17
2018-04-08T03:57:05.590Z,83.17
2018-04-08T03:58:26.510Z,83.26
2018-04-08T03:59:27.232Z,83.17
2018-04-08T04:00:26.798Z,83.36
2018-04-08T04:01:27.583Z,83.17
2018-04-08T04:02:27.043Z,83.17
2018-04-08T04:03:26.849Z,83.07
2018-04-08T04:04:48.723Z,82.98
2018-04-08T04:05:49.572Z,82.79
2018-04-08T04:06:49.218Z,82.79
2018-04-08T04:07:48.776Z,82.60
2018-04-08T04:08:49.175Z,82.60
2018-04-08T04:10:30.249Z,82.41
2018-04-08T04:11:30.980Z,82.60
2018-04-08T04:12:30.714Z,82.69
2018-04-08T04:13:31.074Z,82.69
2018-04-08T04:14:51.326Z,82.79
2018-04-08T04:15:52.069Z,82.69
2018-04-08T04:16:51.583Z,82.60
2018-04-08T04:17:52.003Z,82.60
2018-04-08T04:19:12.462Z,82.50
2018-04-08T04:20:13.027Z,82.41
2018-04-08T04:21:13.411Z,82.31
2018-04-08T04:22:12.832Z,82.21
2018-04-08T04:23:13.485Z,82.50
2018-04-08T04:24:13.483Z,82.50
2018-04-08T04:25:34.640Z,82.50
2018-04-08T04:26:35.149Z,82.60
2018-04-08T04:27:34.599Z,82.50
2018-04-08T04:28:56.445Z,82.60
2018-04-08T04:30:17.904Z,82.50
2018-04-08T04:31:18.669Z,82.50
2018-04-08T04:32:18.163Z,82.50
2018-04-08T04:33:18.960Z,82.69
2018-04-08T04:34:18.550Z,82.89
2018-04-08T04:35:18.111Z,82.89
2018-04-08T04:36:18.782Z,82.89
2018-04-08T04:37:39.460Z,82.79
2018-04-08T04:39:00.274Z,82.69
2018-04-08T04:40:01.267Z,82.60
2018-04-08T04:41:00.663Z,82.41
2018-04-08T04:42:01.117Z,82.31
2018-04-08T04:43:00.803Z,82.21
2018-04-08T04:44:00.312Z,82.21
2018-04-08T04:45:00.736Z,82.31
2018-04-08T04:46:00.388Z,82.50
2018-04-08T04:47:00.751Z,82.41
2018-04-08T04:48:23.372Z,82.69
2018-04-08T04:49:24.262Z,82.69
2018-04-08T04:50:23.615Z,82.89
2018-04-08T04:51:23.401Z,82.89
2018-04-08T04:52:24.002Z,83.07
2018-04-08T04:53:23.516Z,83.17
2018-04-08T04:54:23.135Z,83.17
2018-04-08T04:55:23.817Z,83.17
2018-04-08T04:56:23.559Z,83.17
2018-04-08T04:57:25.967Z,83.07
2018-04-08T04:58:23.689Z,83.07
2018-04-08T04:59:23.101Z,83.07
2018-04-08T05:00:23.995Z,83.07
2018-04-08T05:01:23.996Z,83.07
2018-04-08T05:02:23.504Z,82.98
2018-04-08T05:03:24.311Z,82.89
2018-04-08T05:04:24.364Z,82.98
2018-04-08T05:05:24.253Z,82.89
2018-04-08T05:06:44.789Z,82.79
2018-04-08T05:07:45.571Z,82.79
2018-04-08T05:08:45.013Z,82.50
2018-04-08T05:10:06.072Z,82.21
2018-04-08T05:11:27.993Z,81.93
2018-04-08T05:12:27.789Z,81.74
2018-04-08T05:13:49.683Z,81.46
2018-04-08T05:14:50.192Z,81.30
2018-04-08T05:15:50.721Z,81.21
2018-04-08T05:17:12.232Z,80.83
2018-04-08T05:18:11.660Z,80.73
2018-04-08T05:19:12.151Z,80.54
2018-04-08T05:20:53.296Z,80.44
2018-04-08T05:21:53.872Z,80.35
2018-04-08T05:22:53.592Z,80.07
2018-04-08T05:23:53.088Z,79.88
2018-04-08T05:24:53.704Z,79.68
2018-04-08T05:25:53.285Z,79.44
2018-04-08T05:26:53.838Z,79.35
2018-04-08T05:27:53.803Z,79.15
2018-04-08T05:28:53.678Z,79.25
2018-04-08T05:29:53.327Z,79.35
2018-04-08T05:30:54.099Z,79.35
2018-04-08T05:31:54.054Z,79.44
2018-04-08T05:33:15.123Z,79.15
2018-04-08T05:34:36.603Z,78.96
2018-04-08T05:35:37.669Z,79.15
2018-04-08T05:37:20.959Z,79.15
2018-04-08T05:38:23.017Z,78.77
2018-04-08T05:39:21.512Z,78.67
2018-04-08T05:40:21.154Z,78.49
2018-04-08T05:41:21.706Z,78.30
2018-04-08T05:42:21.415Z,77.95
2018-04-08T05:43:22.065Z,77.28
2018-04-08T05:44:21.944Z,76.81
2018-04-08T05:45:42.695Z,76.08
2018-04-08T05:47:04.379Z,75.03
2018-04-08T05:48:27.272Z,74.37
2018-04-08T05:49:28.013Z,74.02
2018-04-08T05:50:27.988Z,73.73
2018-04-08T05:51:27.434Z,73.16
2018-04-08T05:52:27.002Z,72.87
2018-04-08T05:53:27.417Z,71.95
2018-04-08T05:55:09.358Z,71.47
2018-04-08T05:56:30.902Z,71.47
2018-04-08T05:57:31.766Z,70.90
2018-04-08T05:58:31.239Z,70.71
2018-04-08T05:59:30.986Z,70.46
2018-04-08T06:00:31.944Z,70.46
2018-04-08T06:01:31.539Z,70.07
2018-04-08T06:02:31.391Z,69.41
2018-04-08T06:03:31.533Z,69.70
2018-04-08T06:04:31.178Z,69.41
2018-04-08T06:05:31.742Z,69.31
2018-04-08T06:06:31.310Z,69.50
2018-04-08T06:07:31.427Z,68.93
2018-04-08T06:08:31.437Z,69.06
2018-04-08T06:09:31.488Z,68.87
2018-04-08T06:10:31.374Z,69.25
2018-04-08T06:11:31.401Z,69.25
2018-04-08T06:12:30.979Z,68.77
2018-04-08T06:13:31.982Z,68.96
2018-04-08T06:14:31.945Z,68.77
2018-04-08T06:15:31.778Z,68.87
2018-04-08T06:16:31.684Z,69.54
2018-04-08T06:17:31.324Z,69.35
2018-04-08T06:18:31.000Z,69.35
2018-04-08T06:19:53.055Z,69.64
2018-04-08T06:20:54.039Z,69.54
2018-04-08T06:21:53.042Z,69.92
2018-04-08T06:23:15.224Z,69.92
2018-04-08T06:24:16.017Z,69.73
2018-04-08T06:25:16.017Z,69.15
2018-04-08T06:26:36.797Z,69.29
2018-04-08T06:27:37.527Z,69.38
2018-04-08T06:28:37.206Z,68.90
2018-04-08T06:29:38.032Z,68.07
2018-04-08T06:30:38.008Z,66.74
2018-04-08T06:31:37.792Z,66.48
2018-04-08T06:32:37.575Z,66.29
2018-04-08T06:33:37.473Z,66.48
2018-04-08T06:34:37.492Z,66.48
2018-04-08T06:35:59.373Z,65.08
2018-04-08T06:36:59.054Z,63.76
2018-04-08T06:37:59.867Z,62.84
2018-04-08T06:39:20.810Z,62.26
2018-04-08T06:40:21.468Z,60.75
2018-04-08T06:41:21.123Z,60.38
2018-04-08T06:42:42.276Z,60.28
2018-04-08T06:43:42.256Z,60.18
2018-04-08T06:44:41.960Z,58.67
2018-04-08T06:45:43.152Z,58.29
2018-04-08T06:46:43.422Z,58.29
2018-04-08T06:47:42.733Z,57.43
2018-04-08T06:49:25.657Z,58.00
2018-04-08T06:50:25.305Z,57.71
2018-04-08T06:51:24.867Z,57.62
2018-04-08T06:52:25.834Z,58.00
2018-04-08T06:53:25.882Z,57.97
2018-04-08T06:54:25.404Z,58.36
2018-04-08T06:55:25.322Z,57.62
2018-04-08T06:56:25.253Z,57.23
2018-04-08T06:57:24.854Z,57.43
2018-04-08T06:58:25.880Z,57.52
2018-04-08T06:59:25.022Z,57.81
2018-04-08T07:00:25.048Z,57.40
2018-04-08T07:01:24.696Z,57.78
2018-04-08T07:02:25.878Z,58.17
2018-04-08T07:03:25.397Z,58.64
2018-04-08T07:04:28.803Z,58.84
2018-04-08T07:05:25.926Z,58.36
2018-04-08T07:06:25.833Z,57.40
2018-04-08T07:07:25.351Z,57.88
2018-04-08T07:08:26.168Z,58.36
2018-04-08T07:09:25.139Z,58.26
2018-04-08T07:10:25.211Z,58.17
2018-04-08T07:11:48.212Z,57.81
2018-04-08T07:12:49.237Z,57.90
2018-04-08T07:14:09.968Z,58.13
2018-04-08T07:15:31.918Z,57.71
2018-04-08T07:16:32.962Z,57.90
2018-04-08T07:17:33.054Z,58.00
2018-04-08T07:18:33.359Z,57.81
2018-04-08T07:19:32.166Z,58.20
2018-04-08T07:20:32.857Z,58.67
2018-04-08T07:21:32.736Z,58.39
2018-04-08T07:22:33.082Z,58.10
2018-04-08T07:23:55.309Z,57.62
2018-04-08T07:24:56.473Z,57.50
2018-04-08T07:25:55.460Z,57.50
2018-04-08T07:26:55.652Z,58.17
2018-04-08T07:27:55.788Z,58.17
2018-04-08T07:28:55.772Z,57.97
2018-04-08T07:29:55.963Z,58.17
2018-04-08T07:30:55.862Z,58.17
2018-04-08T07:31:55.860Z,57.97
2018-04-08T07:32:56.220Z,57.97
2018-04-08T07:33:56.196Z,57.50
2018-04-08T07:34:56.031Z,57.50
2018-04-08T07:35:55.858Z,57.88
2018-04-08T07:36:55.711Z,57.50
2018-04-08T07:37:55.578Z,57.21
2018-04-08T07:38:55.866Z,57.30
2018-04-08T07:40:37.798Z,57.78
2018-04-08T07:41:58.978Z,57.68
2018-04-08T07:43:00.148Z,58.36
2018-04-08T07:44:19.705Z,58.36
2018-04-08T07:45:20.807Z,57.97
2018-04-08T07:46:20.017Z,57.62
2018-04-08T07:47:20.490Z,57.81
2018-04-08T07:48:20.466Z,57.52
2018-04-08T07:49:20.291Z,57.33
2018-04-08T07:50:20.221Z,57.55
2018-04-08T07:51:20.350Z,56.88
2018-04-08T07:52:20.704Z,56.40
2018-04-08T07:53:20.896Z,55.73
2018-04-08T07:54:21.111Z,56.21
2018-04-08T07:55:20.628Z,56.59
2018-04-08T07:56:21.263Z,56.43
2018-04-08T07:57:20.962Z,55.76
2018-04-08T07:58:21.280Z,55.46
2018-04-08T07:59:20.847Z,55.66
2018-04-08T08:00:20.252Z,56.52
2018-04-08T08:01:20.662Z,55.49
2018-04-08T08:02:21.049Z,54.63
2018-04-08T08:03:20.030Z,54.24
2018-04-08T08:04:20.221Z,53.88
2018-04-08T08:05:20.660Z,53.11
2018-04-08T08:06:20.562Z,52.73
2018-04-08T08:07:21.188Z,52.75
2018-04-08T08:08:20.183Z,52.49
2018-04-08T08:09:20.525Z,51.53
2018-04-08T08:10:20.814Z,51.14
2018-04-08T08:11:20.717Z,50.57
2018-04-08T08:12:20.826Z,50.09
2018-04-08T08:13:21.046Z,50.40
2018-04-08T08:14:42.151Z,50.69
2018-04-08T08:15:41.931Z,50.30
2018-04-08T08:16:43.377Z,50.04
2018-04-08T08:17:42.224Z,49.37
2018-04-08T08:18:42.574Z,48.69
2018-04-08T08:19:42.770Z,48.59
2018-04-08T08:20:45.259Z,48.03
2018-04-08T08:21:42.252Z,48.06
2018-04-08T08:23:07.041Z,47.19
2018-04-08T08:24:07.618Z,47.29
2018-04-08T08:25:07.598Z,46.11
2018-04-08T08:26:07.866Z,47.07
2018-04-08T08:27:29.788Z,47.36
2018-04-08T08:28:29.772Z,47.58
2018-04-08T08:29:30.010Z,47.58
2018-04-08T08:30:29.936Z,45.86
2018-04-08T08:31:54.348Z,45.76
2018-04-08T08:32:54.044Z,45.18
2018-04-08T08:33:55.360Z,44.90
2018-04-08T08:34:54.314Z,45.50
2018-04-08T08:35:54.347Z,45.31
2018-04-08T08:36:54.016Z,44.15
2018-04-08T08:37:55.184Z,43.88
2018-04-08T08:38:55.659Z,43.61
2018-04-08T08:40:16.384Z,43.03
2018-04-08T08:41:16.125Z,42.57
2018-04-08T08:42:17.030Z,42.55
2018-04-08T08:43:17.144Z,42.65
2018-04-08T08:44:16.828Z,43.13
2018-04-08T08:45:37.905Z,43.13
2018-04-08T08:46:38.677Z,43.03
2018-04-08T08:47:58.711Z,44.07
2018-04-08T08:48:59.913Z,42.62
2018-04-08T08:49:58.624Z,42.79
2018-04-08T08:50:59.841Z,43.28
2018-04-08T08:51:59.527Z,43.18
2018-04-08T08:52:59.610Z,43.76
2018-04-08T08:53:59.471Z,43.76
2018-04-08T08:54:59.323Z,44.05
2018-04-08T08:55:59.599Z,44.24
2018-04-08T08:56:59.352Z,43.76
2018-04-08T08:57:59.431Z,44.07
2018-04-08T08:58:59.493Z,43.71
2018-04-08T08:59:59.379Z,43.41
2018-04-08T09:00:59.041Z,42.93
2018-04-08T09:02:20.585Z,42.33
2018-04-08T09:03:20.800Z,43.08
2018-04-08T09:04:20.804Z,43.45
2018-04-08T09:05:21.141Z,43.74
2018-04-08T09:06:44.616Z,44.70
2018-04-08T09:07:45.347Z,45.21
2018-04-08T09:08:45.204Z,45.01
2018-04-08T09:09:45.389Z,44.90
2018-04-08T09:10:45.438Z,45.09
2018-04-08T09:11:45.222Z,45.48
2018-04-08T09:12:45.145Z,44.90
2018-04-08T09:14:07.180Z,45.84
2018-04-08T09:15:07.981Z,45.55
2018-04-08T09:16:07.342Z,45.94
2018-04-08T09:17:07.920Z,45.96
2018-04-08T09:18:07.617Z,46.25
2018-04-08T09:19:07.947Z,46.34
2018-04-08T09:20:07.540Z,45.76
2018-04-08T09:21:28.187Z,45.96
2018-04-08T09:22:28.402Z,45.57
2018-04-08T09:23:28.620Z,45.69
2018-04-08T09:24:28.729Z,45.50
2018-04-08T09:25:28.816Z,45.50
2018-04-08T09:26:28.471Z,45.21
2018-04-08T09:27:28.115Z,46.49
2018-04-08T09:28:28.784Z,46.30
2018-04-08T09:29:31.374Z,45.52
2018-04-08T09:30:28.581Z,46.22
2018-04-08T09:31:50.024Z,45.16
2018-04-08T09:32:51.048Z,44.77
2018-04-08T09:33:50.275Z,45.25
2018-04-08T09:35:11.223Z,44.60
2018-04-08T09:36:33.262Z,43.54
2018-04-08T09:37:33.408Z,43.24
2018-04-08T09:38:33.464Z,43.32
2018-04-08T09:39:54.983Z,43.99
2018-04-08T09:41:38.390Z,44.29
2018-04-08T09:42:38.118Z,43.99
2018-04-08T09:43:39.071Z,44.19
2018-04-08T09:44:39.204Z,44.77
2018-04-08T09:45:44.211Z,44.57
2018-04-08T09:46:39.607Z,44.96
2018-04-08T09:47:38.402Z,44.67
2018-04-08T09:48:38.172Z,44.29
2018-04-08T09:49:38.966Z,45.64
2018-04-08T09:50:39.011Z,46.12
2018-04-08T09:51:38.859Z,44.48
2018-04-08T09:53:00.117Z,45.25
2018-04-08T09:54:21.784Z,45.06
2018-04-08T09:55:22.494Z,45.33
2018-04-08T09:56:22.661Z,46.20
2018-04-08T09:57:22.376Z,46.97
2018-04-08T09:58:22.065Z,46.88
2018-04-08T09:59:22.330Z,46.78
2018-04-08T10:00:22.505Z,47.16
2018-04-08T10:01:22.483Z,47.45
2018-04-08T10:02:22.736Z,46.10
2018-04-08T10:03:44.692Z,45.72
2018-04-08T10:05:06.766Z,45.91
2018-04-08T10:06:31.047Z,45.91
2018-04-08T10:07:32.636Z,45.72
2018-04-08T10:08:31.443Z,46.03
2018-04-08T10:09:31.572Z,45.35
2018-04-08T10:10:53.452Z,46.12
2018-04-08T10:11:53.283Z,45.86
2018-04-08T10:12:53.099Z,44.98
2018-04-08T10:13:54.262Z,44.38
2018-04-08T10:15:36.160Z,45.06
2018-04-08T10:17:17.933Z,44.89
2018-04-08T10:18:17.733Z,44.70
2018-04-08T10:19:18.277Z,44.21
2018-04-08T10:20:18.229Z,44.50
2018-04-08T10:21:17.964Z,43.75
2018-04-08T10:22:18.344Z,43.65
2018-04-08T10:23:18.810Z,43.65
2018-04-08T10:24:18.627Z,44.91
2018-04-08T10:25:39.851Z,44.06
2018-04-08T10:27:24.731Z,43.09
2018-04-08T10:28:24.763Z,42.71
2018-04-08T10:29:24.811Z,43.09
2018-04-08T10:30:25.063Z,42.34
2018-04-08T10:31:25.022Z,42.34
2018-04-08T10:32:25.068Z,42.34
2018-04-08T10:33:24.964Z,42.17
2018-04-08T10:34:26.249Z,41.68
2018-04-08T10:35:24.997Z,41.80
2018-04-08T10:36:25.102Z,41.70
2018-04-08T10:37:25.160Z,40.85
2018-04-08T10:38:25.184Z,40.56
2018-04-08T10:39:25.484Z,40.58
2018-04-08T10:40:25.957Z,40.29
2018-04-08T10:41:25.146Z,39.78
2018-04-08T10:42:24.991Z,39.98
2018-04-08T10:43:24.844Z,40.77
2018-04-08T10:44:24.846Z,40.87
2018-04-08T10:45:25.028Z,41.18
2018-04-08T10:46:46.055Z,38.96
2018-04-08T10:47:47.410Z,38.60
2018-04-08T10:48:46.391Z,38.62
2018-04-08T10:50:28.935Z,37.06
2018-04-08T10:51:28.864Z,36.18
2018-04-08T10:52:28.648Z,36.57
2018-04-08T10:53:50.805Z,36.61
2018-04-08T10:54:51.969Z,36.22
2018-04-08T10:55:51.976Z,36.22
2018-04-08T10:56:51.855Z,35.63
2018-04-08T10:57:51.792Z,35.67
2018-04-08T10:58:51.596Z,34.52
2018-04-08T10:59:51.363Z,34.83
2018-04-08T11:00:50.888Z,33.77
2018-04-08T11:01:51.802Z,33.98
2018-04-08T11:02:51.465Z,33.22
2018-04-08T11:03:51.386Z,32.75
2018-04-08T11:04:51.413Z,34.01
2018-04-08T11:05:51.609Z,33.15
2018-04-08T11:06:51.691Z,33.26
2018-04-08T11:08:13.623Z,31.42
2018-04-08T11:09:14.567Z,31.71
2018-04-08T11:10:14.868Z,31.54
2018-04-08T11:11:34.788Z,32.06
2018-04-08T11:12:36.007Z,30.78
2018-04-08T11:13:35.924Z,31.44
2018-04-08T11:14:35.875Z,31.52
2018-04-08T11:15:35.704Z,31.80
2018-04-08T11:16:56.945Z,30.82
2018-04-08T11:17:58.097Z,31.31
2018-04-08T11:18:57.946Z,31.80
2018-04-08T11:19:58.165Z,32.46
2018-04-08T11:20:57.883Z,32.45
2018-04-08T11:21:58.105Z,33.31
2018-04-08T11:22:57.904Z,32.23
2018-04-08T11:23:58.259Z,32.50
2018-04-08T11:24:57.388Z,33.97
2018-04-08T11:25:57.787Z,33.69
2018-04-08T11:27:19.157Z,32.35
2018-04-08T11:28:18.976Z,31.98
2018-04-08T11:29:19.773Z,31.51
2018-04-08T11:30:20.068Z,31.32
2018-04-08T11:31:19.847Z,31.44
2018-04-08T11:32:20.040Z,31.55
2018-04-08T11:33:19.225Z,31.19
2018-04-08T11:34:19.564Z,29.43
2018-04-08T11:35:19.843Z,29.69
2018-04-08T11:36:41.075Z,30.29
2018-04-08T11:37:41.717Z,30.00
2018-04-08T11:38:41.797Z,29.63
2018-04-08T11:39:41.620Z,28.65
2018-04-08T11:40:41.502Z,29.33
2018-04-08T11:41:41.770Z,28.92
2018-04-08T11:42:41.834Z,29.20
2018-04-08T11:43:42.040Z,30.16
2018-04-08T11:44:41.706Z,30.72
2018-04-08T11:45:41.789Z,30.98
2018-04-08T11:46:42.074Z,32.14
2018-04-08T11:47:41.892Z,32.42
2018-04-08T11:48:41.951Z,33.69
2018-04-08T11:49:41.666Z,33.28
2018-04-08T11:50:42.298Z,32.50
2018-04-08T11:52:24.429Z,32.48
2018-04-08T11:53:24.194Z,32.84
2018-04-08T11:54:25.239Z,33.23
2018-04-08T11:55:23.998Z,33.43
2018-04-08T11:56:25.164Z,33.75
2018-04-08T11:57:24.869Z,33.30
2018-04-08T11:58:24.867Z,31.96
2018-04-08T11:59:24.618Z,31.01
2018-04-08T12:00:24.662Z,30.64
2018-04-08T12:01:24.307Z,30.67
2018-04-08T12:02:24.464Z,29.41
2018-04-08T12:03:24.120Z,28.64
2018-04-08T12:04:45.974Z,28.08
2018-04-08T12:05:45.844Z,28.89
2018-04-08T12:06:46.012Z,28.40
2018-04-08T12:07:46.063Z,28.30
2018-04-08T12:08:45.816Z,27.51
2018-04-08T12:09:46.525Z,26.43
2018-04-08T12:11:08.382Z,27.02
2018-04-08T12:12:08.107Z,27.71
2018-04-08T12:13:08.250Z,27.80
2018-04-08T12:14:08.342Z,28.08
2018-04-08T12:15:07.906Z,27.57
2018-04-08T12:16:08.042Z,27.87
2018-04-08T12:17:08.292Z,28.06
2018-04-08T12:18:07.129Z,27.19
2018-04-08T12:19:08.224Z,26.91
2018-04-08T12:20:49.714Z,27.02
2018-04-08T12:22:32.110Z,26.65
2018-04-08T12:23:32.721Z,25.78
2018-04-08T12:25:14.707Z,25.79
2018-04-08T12:26:15.304Z,25.43
2018-04-08T12:27:15.451Z,25.12
2018-04-08T12:28:15.278Z,24.82
2018-04-08T12:29:15.328Z,24.63
2018-04-08T12:30:15.793Z,25.12
2018-04-08T12:31:15.578Z,24.64
2018-04-08T12:32:15.849Z,25.12
2018-04-08T12:33:37.455Z,25.42
2018-04-08T12:34:38.258Z,25.21
2018-04-08T12:35:37.993Z,25.50
2018-04-08T12:36:37.628Z,26.09
2018-04-08T12:37:38.653Z,25.21
2018-04-08T12:38:38.282Z,25.22
2018-04-08T12:39:38.378Z,26.10
2018-04-08T12:40:38.093Z,25.43
2018-04-08T12:41:38.045Z,25.13
2018-04-08T12:42:37.676Z,23.65
2018-04-08T12:43:37.890Z,25.14
2018-04-08T12:44:38.017Z,24.84
2018-04-08T12:45:38.095Z,24.24
2018-04-08T12:46:38.086Z,24.84
2018-04-08T12:47:37.905Z,25.03
2018-04-08T12:48:37.849Z,24.74
2018-04-08T12:49:37.663Z,25.34
2018-04-08T12:50:38.870Z,24.74
2018-04-08T12:51:38.018Z,24.34
2018-04-08T12:52:38.314Z,24.64
2018-04-08T12:53:38.124Z,24.34
2018-04-08T12:54:37.757Z,23.95
2018-04-08T12:55:37.490Z,24.24
2018-04-08T12:56:38.312Z,24.34
2018-04-08T12:58:20.380Z,26.18
2018-04-08T13:00:05.308Z,27.32
2018-04-08T13:01:06.904Z,27.02
2018-04-08T13:02:26.540Z,26.45
2018-04-08T13:03:27.216Z,26.05
2018-04-08T13:04:48.820Z,25.77
2018-04-08T13:05:49.492Z,25.88
2018-04-08T13:06:49.263Z,25.88
2018-04-08T13:07:48.880Z,26.58
2018-04-08T13:09:52.565Z,25.12
2018-04-08T13:10:53.243Z,24.74
2018-04-08T13:11:53.270Z,24.43
2018-04-08T13:14:15.642Z,24.24
2018-04-08T13:15:15.720Z,24.34
2018-04-08T13:16:15.629Z,23.94
2018-04-08T13:17:39.226Z,24.73
2018-04-08T13:18:40.002Z,24.63
2018-04-08T13:19:39.801Z,24.13
2018-04-08T13:20:39.792Z,24.82
2018-04-08T13:21:39.410Z,25.61
2018-04-08T13:22:40.084Z,24.82
2018-04-08T13:24:01.648Z,24.43
2018-04-08T13:25:01.691Z,24.53
2018-04-08T13:26:01.536Z,24.82
2018-04-08T13:27:01.229Z,25.71
2018-04-08T13:28:02.155Z,25.22
2018-04-08T13:29:02.118Z,24.60
2018-04-08T13:30:01.663Z,25.78
2018-04-08T13:31:01.556Z,24.99
2018-04-08T13:32:02.248Z,25.98
2018-04-08T13:33:02.398Z,24.70
2018-04-08T13:34:02.134Z,25.39
2018-04-08T13:35:01.854Z,24.81
2018-04-08T13:36:23.128Z,24.12
2018-04-08T13:37:23.311Z,25.20
2018-04-08T13:38:23.087Z,25.31
2018-04-08T13:39:22.946Z,25.09
2018-04-08T13:40:23.112Z,26.25
2018-04-08T13:41:24.069Z,26.32
2018-04-08T13:42:23.519Z,27.59
2018-04-08T13:43:45.351Z,26.69
2018-04-08T13:44:46.346Z,27.66
2018-04-08T13:45:46.028Z,27.15